createdAt,value
2022-07-29T00:00:03.035Z,18.20
2022-07-29T00:01:03.007Z,18.31
2022-07-29T00:02:02.995Z,18.31
2022-07-29T00:03:03.066Z,18.25
2022-07-29T00:04:03.128Z,18.35
2022-07-29T00:05:02.998Z,18.23
2022-07-29T00:06:02.969Z,18.25
2022-07-29T00:07:02.933Z,18.26
2022-07-29T00:08:03.848Z,18.16
2022-07-29T00:09:03.860Z,18.25
2022-07-29T00:10:08.411Z,18.28
2022-07-29T00:11:03.833Z,18.16
2022-07-29T00:12:03.852Z,18.13
2022-07-29T00:13:02.875Z,18.13
2022-07-29T00:14:02.845Z,18.13
2022-07-29T00:15:03.332Z,18.17
2022-07-29T00:16:03.684Z,18.09
2022-07-29T00:17:02.810Z,18.02
2022-07-29T00:18:03.325Z,18.02
2022-07-29T00:19:05.338Z,17.98
2022-07-29T00:20:03.364Z,18.02
2022-07-29T00:21:02.865Z,17.99
2022-07-29T00:22:09.342Z,17.92
2022-07-29T00:23:09.349Z,17.96
2022-07-29T00:24:06.388Z,18.04
2022-07-29T00:25:02.711Z,18.04
2022-07-29T00:26:02.869Z,18.09
2022-07-29T00:27:02.686Z,18.02
2022-07-29T00:28:03.339Z,17.99
2022-07-29T00:29:35.048Z,18.04
2022-07-29T00:30:06.335Z,18.02
2022-07-29T00:31:03.415Z,17.99
2022-07-29T00:32:02.949Z,17.98
2022-07-29T00:33:05.850Z,18.04
2022-07-29T00:34:04.341Z,17.99
2022-07-29T00:35:02.602Z,17.95
2022-07-29T00:36:03.637Z,17.96
2022-07-29T00:37:02.572Z,18.01
2022-07-29T00:38:03.828Z,17.99
2022-07-29T00:39:02.554Z,18.04
2022-07-29T00:40:03.336Z,18.04
2022-07-29T00:41:05.339Z,17.99
2022-07-29T00:42:02.531Z,17.92
2022-07-29T00:43:05.325Z,17.95
2022-07-29T00:44:02.535Z,17.96
2022-07-29T00:45:02.500Z,17.87
2022-07-29T00:46:02.486Z,17.92
2022-07-29T00:47:03.417Z,17.91
2022-07-29T00:48:02.468Z,17.77
2022-07-29T00:49:02.971Z,17.76
2022-07-29T00:50:02.500Z,17.74
2022-07-29T00:51:02.431Z,17.77
2022-07-29T00:52:02.410Z,17.70
2022-07-29T00:53:02.423Z,17.71
2022-07-29T00:54:05.338Z,17.68
2022-07-29T00:55:08.038Z,17.63
2022-07-29T00:56:03.370Z,17.62
2022-07-29T00:57:02.376Z,17.62
2022-07-29T00:58:02.347Z,17.70
2022-07-29T00:59:03.338Z,17.68
2022-07-29T01:00:02.353Z,17.73
2022-07-29T01:01:02.427Z,17.60
2022-07-29T01:02:02.390Z,17.60
2022-07-29T01:03:04.883Z,17.60
2022-07-29T01:04:02.279Z,17.63
2022-07-29T01:05:02.364Z,17.54
2022-07-29T01:06:02.262Z,17.60
2022-07-29T01:07:04.836Z,17.62
2022-07-29T01:08:02.233Z,17.54
2022-07-29T01:09:02.233Z,17.51
2022-07-29T01:10:02.238Z,17.51
2022-07-29T01:11:02.205Z,17.54
2022-07-29T01:12:02.840Z,17.58
2022-07-29T01:13:02.192Z,17.58
2022-07-29T01:14:02.193Z,17.53
2022-07-29T01:15:02.840Z,17.46
2022-07-29T01:16:02.274Z,17.47
2022-07-29T01:17:02.847Z,17.57
2022-07-29T01:18:08.840Z,17.49
2022-07-29T01:19:02.141Z,17.40
2022-07-29T01:20:02.107Z,17.46
2022-07-29T01:21:02.127Z,17.40
2022-07-29T01:22:02.850Z,17.51
2022-07-29T01:23:02.080Z,17.57
2022-07-29T01:24:02.083Z,17.47
2022-07-29T01:25:02.836Z,17.57
2022-07-29T01:26:08.849Z,17.57
2022-07-29T01:27:03.099Z,17.63
2022-07-29T01:28:02.372Z,17.47
2022-07-29T01:29:07.627Z,17.68
2022-07-29T01:30:05.385Z,17.73
2022-07-29T01:31:02.028Z,17.60
2022-07-29T01:32:08.877Z,17.71
2022-07-29T01:33:09.841Z,17.54
2022-07-29T01:34:02.890Z,17.54
2022-07-29T01:35:01.991Z,17.53
2022-07-29T01:36:01.958Z,17.54
2022-07-29T01:37:01.922Z,17.42
2022-07-29T01:38:01.919Z,17.43
2022-07-29T01:39:02.839Z,17.35
2022-07-29T01:40:01.915Z,17.40
2022-07-29T01:41:01.881Z,17.43
2022-07-29T01:42:02.836Z,17.30
2022-07-29T01:43:04.848Z,17.33
2022-07-29T01:44:01.837Z,17.40
2022-07-29T01:45:01.887Z,17.28
2022-07-29T01:46:01.823Z,17.30
2022-07-29T01:47:02.417Z,17.28
2022-07-29T01:48:01.806Z,17.24
2022-07-29T01:49:01.867Z,17.32
2022-07-29T01:50:01.812Z,17.30
2022-07-29T01:51:01.777Z,17.40
2022-07-29T01:52:04.345Z,17.42
2022-07-29T01:53:01.875Z,17.40
2022-07-29T01:54:01.743Z,17.30
2022-07-29T01:55:01.718Z,17.39
2022-07-29T01:56:01.741Z,17.32
2022-07-29T01:57:01.706Z,17.30
2022-07-29T01:58:04.345Z,17.30
2022-07-29T01:59:02.348Z,17.22
2022-07-29T02:00:02.355Z,17.17
2022-07-29T02:01:02.345Z,17.15
2022-07-29T02:02:01.983Z,17.14
2022-07-29T02:03:01.634Z,17.14
2022-07-29T02:04:01.653Z,17.15
2022-07-29T02:05:02.441Z,17.12
2022-07-29T02:06:01.624Z,17.09
2022-07-29T02:07:01.872Z,17.09
2022-07-29T02:08:01.879Z,17.05
2022-07-29T02:09:01.587Z,17.07
2022-07-29T02:10:01.570Z,17.03
2022-07-29T02:11:04.346Z,17.05
2022-07-29T02:12:01.886Z,16.99
2022-07-29T02:13:01.526Z,17.02
2022-07-29T02:14:01.545Z,17.00
2022-07-29T02:15:01.523Z,17.02
2022-07-29T02:16:01.570Z,17.03
2022-07-29T02:17:01.494Z,16.98
2022-07-29T02:18:01.496Z,17.00
2022-07-29T02:19:01.469Z,16.98
2022-07-29T02:20:01.464Z,17.02
2022-07-29T02:21:01.437Z,17.05
2022-07-29T02:22:01.448Z,17.17
2022-07-29T02:23:01.434Z,17.12
2022-07-29T02:24:01.409Z,17.15
2022-07-29T02:25:03.758Z,17.20
2022-07-29T02:26:01.420Z,17.12
2022-07-29T02:27:01.375Z,17.15
2022-07-29T02:28:04.348Z,17.22
2022-07-29T02:29:01.382Z,17.22
2022-07-29T02:30:01.849Z,17.30
2022-07-29T02:31:01.398Z,17.30
2022-07-29T02:32:01.846Z,17.27
2022-07-29T02:33:01.308Z,17.22
2022-07-29T02:34:01.373Z,17.17
2022-07-29T02:35:01.384Z,17.27
2022-07-29T02:36:03.842Z,17.24
2022-07-29T02:37:01.266Z,17.18
2022-07-29T02:38:01.250Z,17.12
2022-07-29T02:39:01.379Z,17.15
2022-07-29T02:40:01.238Z,17.10
2022-07-29T02:41:01.224Z,17.20
2022-07-29T02:42:01.375Z,17.17
2022-07-29T02:43:03.288Z,17.12
2022-07-29T02:44:01.187Z,17.10
2022-07-29T02:45:01.178Z,17.15
2022-07-29T02:46:01.200Z,17.21
2022-07-29T02:47:01.915Z,17.17
2022-07-29T02:48:01.141Z,17.14
2022-07-29T02:49:03.968Z,17.17
2022-07-29T02:50:01.171Z,17.20
2022-07-29T02:51:01.846Z,17.12
2022-07-29T02:52:01.121Z,17.17
2022-07-29T02:53:01.090Z,17.21
2022-07-29T02:54:01.079Z,17.15
2022-07-29T02:55:07.843Z,17.17
2022-07-29T02:56:01.093Z,17.15
2022-07-29T02:57:01.859Z,17.14
2022-07-29T02:58:03.855Z,17.18
2022-07-29T02:59:03.857Z,17.12
2022-07-29T03:00:01.014Z,17.18
2022-07-29T03:01:01.851Z,17.06
2022-07-29T03:02:01.115Z,17.09
2022-07-29T03:03:00.973Z,17.07
2022-07-29T03:04:01.856Z,17.07
2022-07-29T03:05:03.916Z,17.00
2022-07-29T03:06:01.854Z,16.95
2022-07-29T03:07:00.953Z,16.91
2022-07-29T03:08:00.940Z,17.02
2022-07-29T03:09:00.910Z,17.05
2022-07-29T03:10:00.911Z,17.07
2022-07-29T03:11:07.862Z,17.06
2022-07-29T03:12:00.898Z,17.06
2022-07-29T03:13:00.903Z,17.06
2022-07-29T03:14:00.860Z,17.09
2022-07-29T03:15:00.885Z,17.18
2022-07-29T03:16:03.454Z,17.17
2022-07-29T03:17:00.831Z,17.20
2022-07-29T03:18:01.359Z,17.06
2022-07-29T03:19:01.808Z,17.05
2022-07-29T03:20:00.812Z,17.10
2022-07-29T03:21:01.353Z,16.98
2022-07-29T03:22:00.766Z,16.98
2022-07-29T03:23:01.365Z,16.98
2022-07-29T03:24:02.764Z,16.90
2022-07-29T03:25:00.880Z,16.87
2022-07-29T03:26:00.735Z,16.85
2022-07-29T03:27:00.710Z,16.85
2022-07-29T03:28:00.740Z,16.80
2022-07-29T03:29:00.696Z,16.88
2022-07-29T03:30:00.681Z,16.75
2022-07-29T03:31:00.738Z,16.80
2022-07-29T03:32:00.662Z,16.82
2022-07-29T03:33:00.672Z,16.90
2022-07-29T03:34:00.721Z,16.84
2022-07-29T03:35:03.353Z,16.84
2022-07-29T03:36:00.615Z,16.98
2022-07-29T03:37:00.604Z,16.92
2022-07-29T03:38:03.370Z,17.00
2022-07-29T03:39:00.876Z,16.99
2022-07-29T03:40:00.615Z,17.02
2022-07-29T03:41:00.561Z,17.00
2022-07-29T03:42:00.549Z,16.96
2022-07-29T03:43:00.545Z,16.99
2022-07-29T03:44:00.545Z,17.03
2022-07-29T03:45:00.519Z,17.02
2022-07-29T03:46:00.581Z,17.05
2022-07-29T03:47:00.506Z,17.00
2022-07-29T03:48:01.264Z,17.03
2022-07-29T03:49:00.542Z,16.96
2022-07-29T03:50:00.478Z,16.95
2022-07-29T03:51:00.489Z,16.95
2022-07-29T03:52:00.441Z,16.96
2022-07-29T03:53:00.430Z,16.92
2022-07-29T03:54:00.431Z,16.96
2022-07-29T03:55:00.413Z,17.02
2022-07-29T03:56:02.386Z,16.98
2022-07-29T03:57:01.374Z,16.92
2022-07-29T03:58:07.360Z,16.99
2022-07-29T03:59:03.365Z,16.87
2022-07-29T04:00:00.364Z,16.81
2022-07-29T04:01:00.356Z,16.91
2022-07-29T04:02:02.036Z,16.85
2022-07-29T04:03:00.373Z,16.88
2022-07-29T04:04:00.429Z,16.85
2022-07-29T04:05:00.326Z,16.82
2022-07-29T04:06:00.857Z,16.99
2022-07-29T04:07:00.296Z,16.96
2022-07-29T04:08:00.332Z,16.92
2022-07-29T04:09:00.257Z,16.95
2022-07-29T04:10:00.243Z,16.96
2022-07-29T04:11:00.859Z,16.82
2022-07-29T04:12:03.368Z,16.96
2022-07-29T04:13:00.215Z,16.81
2022-07-29T04:14:00.870Z,16.90
2022-07-29T04:15:00.891Z,16.82
2022-07-29T04:16:00.257Z,16.80
2022-07-29T04:17:00.405Z,16.77
2022-07-29T04:18:00.582Z,16.73
2022-07-29T04:19:00.148Z,16.78
2022-07-29T04:20:00.160Z,16.78
2022-07-29T04:21:00.868Z,16.78
2022-07-29T04:22:00.117Z,16.80
2022-07-29T04:23:00.394Z,16.82
2022-07-29T04:24:02.867Z,16.81
2022-07-29T04:25:04.313Z,16.78
2022-07-29T04:26:00.085Z,16.84
2022-07-29T04:27:00.071Z,16.81
2022-07-29T04:28:00.065Z,16.77
2022-07-29T04:29:00.059Z,16.81
2022-07-29T04:30:02.866Z,16.73
2022-07-29T04:31:00.084Z,16.80
2022-07-29T04:32:00.005Z,16.85
2022-07-29T04:33:02.866Z,16.82
2022-07-29T04:33:59.993Z,16.78
2022-07-29T04:35:00.867Z,16.81
2022-07-29T04:35:59.955Z,16.82
2022-07-29T04:37:14.861Z,16.73
2022-07-29T04:37:59.933Z,16.82
2022-07-29T04:38:59.959Z,16.82
2022-07-29T04:39:59.923Z,16.77
2022-07-29T04:40:59.939Z,16.75
2022-07-29T04:41:59.908Z,16.96
2022-07-29T04:43:00.859Z,16.78
2022-07-29T04:43:59.872Z,16.84
2022-07-29T04:45:01.341Z,16.85
2022-07-29T04:45:59.904Z,16.99
2022-07-29T04:46:59.854Z,16.99
2022-07-29T04:48:00.378Z,17.02
2022-07-29T04:49:00.558Z,16.92
2022-07-29T04:50:00.375Z,16.98
2022-07-29T04:51:06.359Z,16.96
2022-07-29T04:51:59.782Z,16.96
2022-07-29T04:52:59.887Z,17.03
2022-07-29T04:53:59.764Z,17.00
2022-07-29T04:54:59.763Z,16.98
2022-07-29T04:56:00.377Z,17.06
2022-07-29T04:56:59.738Z,17.07
2022-07-29T04:57:59.748Z,17.10
2022-07-29T04:58:59.706Z,17.05
2022-07-29T04:59:59.689Z,17.12
2022-07-29T05:00:59.889Z,17.05
2022-07-29T05:01:59.800Z,17.06
2022-07-29T05:02:59.741Z,17.06
2022-07-29T05:04:00.722Z,17.10
2022-07-29T05:04:59.627Z,17.10
2022-07-29T05:05:59.627Z,17.03
2022-07-29T05:07:00.367Z,17.05
2022-07-29T05:07:59.602Z,17.07
2022-07-29T05:09:00.371Z,17.09
2022-07-29T05:09:59.608Z,17.10
2022-07-29T05:11:12.526Z,17.05
2022-07-29T05:12:00.550Z,17.03
2022-07-29T05:12:59.539Z,17.05
2022-07-29T05:14:00.378Z,17.10
2022-07-29T05:14:59.524Z,17.07
2022-07-29T05:15:59.629Z,17.12
2022-07-29T05:17:06.372Z,17.20
2022-07-29T05:18:00.379Z,17.18
2022-07-29T05:18:59.489Z,17.15
2022-07-29T05:19:59.486Z,17.12
2022-07-29T05:21:00.382Z,17.24
2022-07-29T05:22:02.368Z,17.33
2022-07-29T05:22:59.431Z,17.46
2022-07-29T05:24:14.769Z,17.38
2022-07-29T05:25:02.281Z,17.53
2022-07-29T05:26:00.403Z,17.51
2022-07-29T05:26:59.397Z,17.60
2022-07-29T05:27:59.383Z,17.68
2022-07-29T05:28:59.864Z,17.63
2022-07-29T05:29:59.875Z,17.73
2022-07-29T05:30:59.434Z,17.60
2022-07-29T05:31:59.332Z,17.58
2022-07-29T05:32:59.878Z,17.62
2022-07-29T05:33:59.347Z,17.63
2022-07-29T05:35:01.865Z,17.54
2022-07-29T05:36:00.772Z,17.53
2022-07-29T05:36:59.287Z,17.51
2022-07-29T05:37:59.286Z,17.54
2022-07-29T05:38:59.277Z,17.47
2022-07-29T05:39:59.297Z,17.39
2022-07-29T05:40:59.236Z,17.39
2022-07-29T05:41:59.878Z,17.39
2022-07-29T05:43:01.871Z,17.40
2022-07-29T05:43:59.208Z,17.42
2022-07-29T05:44:59.193Z,17.47
2022-07-29T05:45:59.313Z,17.39
2022-07-29T05:46:59.170Z,17.47
2022-07-29T05:48:01.876Z,17.47
2022-07-29T05:48:59.961Z,17.47
2022-07-29T05:49:59.142Z,17.39
2022-07-29T05:50:59.876Z,17.53
2022-07-29T05:51:59.153Z,17.53
2022-07-29T05:52:59.110Z,17.57
2022-07-29T05:53:59.095Z,17.60
2022-07-29T05:54:59.086Z,17.57
2022-07-29T05:55:59.080Z,17.60
2022-07-29T05:56:59.056Z,17.57
2022-07-29T05:57:59.399Z,17.62
2022-07-29T05:58:59.050Z,17.74
2022-07-29T05:59:59.883Z,17.71
2022-07-29T06:00:59.967Z,17.71
2022-07-29T06:01:59.094Z,17.83
2022-07-29T06:02:59.012Z,17.91
2022-07-29T06:03:59.936Z,17.95
2022-07-29T06:04:59.050Z,17.94
2022-07-29T06:05:58.965Z,17.95
2022-07-29T06:06:59.875Z,17.92
2022-07-29T06:07:59.425Z,17.83
2022-07-29T06:08:59.877Z,17.74
2022-07-29T06:09:59.915Z,17.79
2022-07-29T06:10:59.884Z,17.76
2022-07-29T06:11:59.411Z,17.70
2022-07-29T06:12:59.893Z,17.74
2022-07-29T06:13:58.899Z,17.80
2022-07-29T06:15:01.376Z,17.89
2022-07-29T06:15:58.892Z,17.73
2022-07-29T06:17:01.384Z,17.92
2022-07-29T06:18:00.354Z,17.87
2022-07-29T06:18:58.832Z,17.74
2022-07-29T06:19:58.812Z,17.65
2022-07-29T06:20:58.799Z,17.74
2022-07-29T06:21:58.902Z,17.79
2022-07-29T06:23:02.383Z,17.81
2022-07-29T06:23:58.772Z,17.77
2022-07-29T06:24:59.383Z,17.79
2022-07-29T06:25:58.740Z,17.86
2022-07-29T06:26:59.943Z,17.94
2022-07-29T06:27:58.718Z,17.86
2022-07-29T06:28:58.947Z,17.77
2022-07-29T06:29:58.699Z,17.89
2022-07-29T06:31:01.398Z,17.83
2022-07-29T06:31:58.684Z,17.87
2022-07-29T06:32:58.672Z,17.94
2022-07-29T06:33:59.399Z,17.87
2022-07-29T06:35:17.743Z,17.92
2022-07-29T06:35:59.650Z,17.94
2022-07-29T06:36:58.614Z,17.73
2022-07-29T06:37:59.706Z,17.92
2022-07-29T06:38:58.601Z,17.87
2022-07-29T06:39:59.631Z,17.94
2022-07-29T06:40:58.910Z,17.98
2022-07-29T06:41:59.386Z,17.98
2022-07-29T06:42:59.401Z,18.01
2022-07-29T06:43:58.930Z,17.94
2022-07-29T06:44:58.537Z,17.99
2022-07-29T06:45:59.452Z,17.99
2022-07-29T06:46:58.522Z,18.14
2022-07-29T06:47:58.513Z,18.07
2022-07-29T06:48:58.532Z,18.02
2022-07-29T06:49:59.384Z,17.99
2022-07-29T06:50:59.382Z,18.19
2022-07-29T06:51:58.478Z,18.17
2022-07-29T06:52:59.506Z,18.26
2022-07-29T06:54:02.286Z,18.26
2022-07-29T06:54:59.439Z,18.38
2022-07-29T06:55:59.389Z,18.49
2022-07-29T06:57:01.379Z,18.51
2022-07-29T06:57:58.438Z,18.64
2022-07-29T06:58:58.407Z,18.66
2022-07-29T06:59:58.397Z,18.74
2022-07-29T07:00:58.442Z,18.83
2022-07-29T07:01:58.372Z,18.78
2022-07-29T07:02:58.336Z,18.94
2022-07-29T07:03:58.329Z,18.93
2022-07-29T07:04:58.415Z,18.91
2022-07-29T07:05:58.328Z,18.79
2022-07-29T07:06:58.419Z,18.87
2022-07-29T07:07:58.282Z,18.93
2022-07-29T07:08:58.257Z,18.89
2022-07-29T07:09:58.894Z,18.83
2022-07-29T07:10:58.247Z,18.87
2022-07-29T07:11:58.262Z,18.84
2022-07-29T07:12:58.232Z,18.96
2022-07-29T07:14:02.954Z,18.91
2022-07-29T07:14:59.203Z,18.96
2022-07-29T07:15:58.203Z,18.89
2022-07-29T07:16:58.264Z,18.96
2022-07-29T07:17:58.167Z,19.02
2022-07-29T07:18:58.170Z,19.13
2022-07-29T07:19:58.149Z,19.20
2022-07-29T07:20:58.131Z,19.17
2022-07-29T07:21:58.400Z,19.15
2022-07-29T07:22:59.388Z,19.21
2022-07-29T07:23:58.106Z,19.24
2022-07-29T07:24:58.123Z,19.24
2022-07-29T07:25:58.083Z,19.23
2022-07-29T07:26:58.086Z,19.25
2022-07-29T07:27:58.068Z,19.17
2022-07-29T07:28:58.074Z,19.15
2022-07-29T07:29:58.036Z,19.15
2022-07-29T07:30:59.053Z,19.12
2022-07-29T07:32:01.528Z,19.21
2022-07-29T07:32:58.016Z,19.21
2022-07-29T07:33:58.910Z,19.20
2022-07-29T07:34:57.992Z,19.15
2022-07-29T07:35:57.978Z,19.09
2022-07-29T07:36:58.895Z,19.20
2022-07-29T07:37:57.939Z,19.30
2022-07-29T07:38:57.956Z,19.28
2022-07-29T07:39:57.952Z,19.35
2022-07-29T07:40:57.933Z,19.32
2022-07-29T07:41:57.907Z,19.43
2022-07-29T07:42:57.908Z,19.45
2022-07-29T07:43:57.909Z,19.46
2022-07-29T07:45:12.980Z,19.49
2022-07-29T07:45:58.970Z,19.53
2022-07-29T07:46:57.860Z,19.52
2022-07-29T07:47:58.855Z,19.58
2022-07-29T07:48:57.875Z,19.55
2022-07-29T07:50:04.410Z,19.67
2022-07-29T07:51:00.397Z,19.71
2022-07-29T07:51:57.796Z,19.71
2022-07-29T07:52:57.790Z,19.71
2022-07-29T07:53:57.820Z,19.76
2022-07-29T07:54:58.394Z,19.76
2022-07-29T07:56:10.610Z,19.94
2022-07-29T07:56:58.747Z,19.89
2022-07-29T07:57:57.737Z,19.86
2022-07-29T07:58:57.922Z,19.90
2022-07-29T07:59:57.744Z,19.95
2022-07-29T08:00:58.474Z,19.95
2022-07-29T08:01:57.782Z,20.15
2022-07-29T08:02:58.432Z,20.05
2022-07-29T08:03:57.734Z,20.08
2022-07-29T08:04:57.675Z,20.07
2022-07-29T08:05:57.677Z,20.22
2022-07-29T08:06:57.678Z,20.30
2022-07-29T08:07:58.401Z,20.41
2022-07-29T08:09:19.559Z,20.50
2022-07-29T08:09:58.625Z,20.57
2022-07-29T08:11:03.246Z,20.61
2022-07-29T08:11:58.599Z,20.75
2022-07-29T08:12:57.578Z,20.81
2022-07-29T08:13:58.420Z,20.96
2022-07-29T08:14:57.569Z,21.03
2022-07-29T08:15:57.564Z,20.98
2022-07-29T08:17:00.480Z,20.87
2022-07-29T08:17:59.425Z,20.79
2022-07-29T08:18:57.515Z,20.61
2022-07-29T08:20:00.411Z,20.81
2022-07-29T08:20:57.486Z,20.82
2022-07-29T08:21:58.398Z,20.96
2022-07-29T08:22:59.432Z,21.11
2022-07-29T08:24:00.741Z,21.19
2022-07-29T08:25:01.401Z,21.22
2022-07-29T08:26:00.403Z,21.33
2022-07-29T08:26:57.414Z,21.33
2022-07-29T08:27:57.405Z,21.34
2022-07-29T08:28:57.422Z,21.36
2022-07-29T08:29:57.386Z,21.33
2022-07-29T08:30:57.896Z,21.40
2022-07-29T08:31:57.951Z,21.51
2022-07-29T08:32:57.413Z,21.59
2022-07-29T08:33:57.508Z,21.42
2022-07-29T08:34:57.331Z,21.16
2022-07-29T08:35:57.317Z,21.13
2022-07-29T08:36:57.305Z,21.19
2022-07-29T08:37:57.313Z,21.21
2022-07-29T08:38:57.291Z,21.30
2022-07-29T08:39:57.433Z,21.34
2022-07-29T08:40:57.899Z,21.37
2022-07-29T08:41:57.770Z,21.33
2022-07-29T08:42:57.249Z,21.21
2022-07-29T08:43:57.902Z,21.31
2022-07-29T08:44:57.214Z,21.37
2022-07-29T08:45:57.292Z,21.53
2022-07-29T08:46:57.202Z,21.56
2022-07-29T08:47:57.211Z,21.45
2022-07-29T08:48:57.247Z,21.51
2022-07-29T08:49:57.923Z,21.51
2022-07-29T08:50:57.186Z,21.58
2022-07-29T08:51:58.166Z,21.61
2022-07-29T08:53:00.374Z,21.64
2022-07-29T08:53:59.910Z,21.63
2022-07-29T08:54:57.119Z,21.68
2022-07-29T08:55:57.134Z,21.66
2022-07-29T08:57:03.904Z,21.86
2022-07-29T08:57:57.378Z,21.89
2022-07-29T08:58:57.088Z,21.91
2022-07-29T08:59:57.062Z,21.77
2022-07-29T09:00:58.089Z,21.75
2022-07-29T09:01:57.465Z,21.77
2022-07-29T09:02:57.045Z,21.85
2022-07-29T09:03:57.060Z,21.99
2022-07-29T09:04:57.009Z,21.98
2022-07-29T09:05:57.058Z,21.93
2022-07-29T09:06:56.988Z,22.01
2022-07-29T09:07:56.998Z,22.02
2022-07-29T09:08:56.969Z,21.85
2022-07-29T09:09:56.968Z,21.91
2022-07-29T09:10:57.900Z,22.11
2022-07-29T09:11:57.507Z,22.19
2022-07-29T09:12:56.925Z,22.38
2022-07-29T09:13:57.931Z,22.57
2022-07-29T09:14:56.900Z,22.52
2022-07-29T09:15:56.964Z,22.61
2022-07-29T09:16:56.952Z,22.59
2022-07-29T09:17:56.894Z,22.61
2022-07-29T09:18:56.851Z,22.46
2022-07-29T09:19:57.425Z,22.30
2022-07-29T09:20:56.833Z,22.42
2022-07-29T09:22:04.057Z,22.41
2022-07-29T09:22:56.830Z,22.51
2022-07-29T09:23:57.813Z,22.44
2022-07-29T09:24:56.814Z,22.57
2022-07-29T09:25:56.792Z,22.52
2022-07-29T09:26:57.409Z,22.45
2022-07-29T09:27:59.422Z,22.51
2022-07-29T09:28:56.774Z,22.59
2022-07-29T09:29:56.744Z,22.56
2022-07-29T09:30:56.735Z,22.41
2022-07-29T09:31:57.468Z,22.51
2022-07-29T09:32:57.413Z,22.39
2022-07-29T09:33:56.723Z,22.45
2022-07-29T09:34:58.476Z,22.44
2022-07-29T09:35:57.179Z,22.51
2022-07-29T09:36:57.020Z,22.41
2022-07-29T09:37:56.659Z,22.35
2022-07-29T09:38:57.419Z,22.33
2022-07-29T09:39:56.653Z,22.26
2022-07-29T09:40:56.610Z,22.41
2022-07-29T09:41:56.608Z,22.38
2022-07-29T09:42:56.601Z,22.38
2022-07-29T09:43:56.584Z,22.31
2022-07-29T09:44:56.597Z,22.33
2022-07-29T09:45:56.564Z,22.27
2022-07-29T09:46:59.522Z,22.26
2022-07-29T09:47:56.537Z,22.29
2022-07-29T09:48:56.597Z,22.27
2022-07-29T09:49:57.474Z,22.27
2022-07-29T09:50:56.511Z,22.49
2022-07-29T09:51:56.548Z,22.39
2022-07-29T09:52:57.425Z,22.35
2022-07-29T09:53:57.412Z,22.33
2022-07-29T09:54:56.464Z,22.38
2022-07-29T09:55:56.944Z,22.35
2022-07-29T09:56:59.424Z,22.33
2022-07-29T09:57:56.433Z,22.24
2022-07-29T09:58:56.466Z,22.20
2022-07-29T09:59:56.409Z,22.33
2022-07-29T10:00:56.486Z,22.15
2022-07-29T10:01:56.691Z,22.20
2022-07-29T10:03:10.935Z,22.30
2022-07-29T10:03:56.370Z,22.31
2022-07-29T10:04:56.359Z,22.35
2022-07-29T10:05:56.457Z,22.31
2022-07-29T10:07:04.317Z,22.26
2022-07-29T10:07:57.778Z,22.19
2022-07-29T10:08:56.344Z,22.21
2022-07-29T10:09:56.927Z,22.33
2022-07-29T10:10:56.299Z,22.48
2022-07-29T10:11:56.334Z,22.59
2022-07-29T10:12:56.273Z,22.60
2022-07-29T10:13:56.257Z,22.67
2022-07-29T10:14:58.928Z,22.48
2022-07-29T10:15:56.254Z,22.49
2022-07-29T10:16:56.448Z,22.54
2022-07-29T10:17:56.216Z,22.54
2022-07-29T10:18:56.922Z,22.46
2022-07-29T10:19:56.197Z,22.08
2022-07-29T10:20:56.177Z,22.19
2022-07-29T10:21:58.147Z,22.12
2022-07-29T10:22:56.187Z,22.14
2022-07-29T10:23:56.167Z,22.12
2022-07-29T10:24:58.158Z,22.04
2022-07-29T10:25:56.926Z,21.94
2022-07-29T10:26:58.936Z,22.08
2022-07-29T10:27:56.124Z,22.15
2022-07-29T10:28:56.471Z,22.01
2022-07-29T10:29:56.934Z,22.08
2022-07-29T10:30:56.101Z,21.83
2022-07-29T10:32:02.920Z,21.83
2022-07-29T10:32:56.965Z,21.77
2022-07-29T10:33:56.058Z,21.77
2022-07-29T10:35:02.959Z,21.73
2022-07-29T10:35:56.034Z,21.68
2022-07-29T10:36:56.932Z,21.64
2022-07-29T10:38:02.952Z,21.45
2022-07-29T10:38:56.473Z,21.49
2022-07-29T10:39:56.998Z,21.49
2022-07-29T10:40:57.405Z,21.55
2022-07-29T10:41:56.196Z,21.49
2022-07-29T10:42:55.935Z,21.51
2022-07-29T10:43:55.954Z,21.48
2022-07-29T10:45:02.431Z,21.27
2022-07-29T10:45:55.903Z,21.08
2022-07-29T10:46:55.964Z,21.06
2022-07-29T10:47:55.902Z,20.98
2022-07-29T10:48:56.466Z,20.94
2022-07-29T10:49:55.881Z,20.97
2022-07-29T10:50:56.428Z,21.05
2022-07-29T10:51:56.670Z,21.06
2022-07-29T10:52:55.831Z,20.96
2022-07-29T10:53:55.823Z,20.97
2022-07-29T10:54:55.827Z,20.98
2022-07-29T10:55:55.806Z,20.93
2022-07-29T10:56:56.435Z,20.97
2022-07-29T10:57:56.442Z,20.81
2022-07-29T10:58:56.425Z,20.71
2022-07-29T10:59:55.967Z,20.48
2022-07-29T11:00:58.437Z,20.35
2022-07-29T11:02:10.894Z,20.22
2022-07-29T11:02:59.579Z,20.31
2022-07-29T11:03:57.201Z,20.40
2022-07-29T11:04:55.706Z,20.31
2022-07-29T11:05:55.957Z,20.10
2022-07-29T11:06:56.440Z,20.04
2022-07-29T11:07:55.675Z,19.92
2022-07-29T11:08:55.677Z,19.94
2022-07-29T11:09:55.647Z,20.00
2022-07-29T11:10:55.965Z,19.95
2022-07-29T11:11:58.629Z,19.95
2022-07-29T11:12:55.618Z,19.97
2022-07-29T11:14:10.653Z,20.08
2022-07-29T11:14:55.597Z,19.92
2022-07-29T11:15:56.484Z,19.80
2022-07-29T11:16:55.573Z,19.79
2022-07-29T11:17:59.667Z,19.71
2022-07-29T11:18:56.435Z,19.60
2022-07-29T11:19:55.539Z,19.55
2022-07-29T11:20:55.527Z,19.32
2022-07-29T11:22:00.456Z,19.24
2022-07-29T11:22:55.503Z,19.31
2022-07-29T11:23:56.447Z,19.42
2022-07-29T11:24:55.480Z,19.25
2022-07-29T11:25:55.484Z,19.34
2022-07-29T11:27:00.428Z,19.34
2022-07-29T11:27:56.472Z,19.39
2022-07-29T11:28:55.671Z,19.43
2022-07-29T11:29:55.950Z,19.45
2022-07-29T11:30:55.413Z,19.32
2022-07-29T11:31:55.738Z,19.31
2022-07-29T11:32:55.394Z,19.24
2022-07-29T11:33:56.822Z,19.25
2022-07-29T11:34:55.364Z,19.10
2022-07-29T11:36:00.830Z,19.09
2022-07-29T11:36:59.054Z,18.94
2022-07-29T11:37:57.801Z,19.02
2022-07-29T11:38:55.367Z,19.07
2022-07-29T11:39:55.339Z,19.01
2022-07-29T11:40:55.317Z,18.94
2022-07-29T11:41:55.775Z,18.96
2022-07-29T11:42:55.308Z,18.91
2022-07-29T11:43:55.985Z,18.96
2022-07-29T11:44:55.269Z,18.94
2022-07-29T11:45:57.946Z,18.90
2022-07-29T11:46:55.255Z,18.78
2022-07-29T11:47:55.315Z,18.87
2022-07-29T11:48:55.315Z,18.78
2022-07-29T11:50:16.214Z,18.71
2022-07-29T11:50:55.942Z,18.64
2022-07-29T11:51:55.939Z,18.76
2022-07-29T11:52:55.176Z,18.71
2022-07-29T11:53:55.160Z,18.69
2022-07-29T11:54:57.682Z,18.75
2022-07-29T11:55:55.148Z,18.66
2022-07-29T11:56:55.135Z,18.68
2022-07-29T11:58:03.849Z,18.68
2022-07-29T11:58:56.117Z,18.76
2022-07-29T11:59:55.129Z,18.72
2022-07-29T12:00:55.307Z,18.72
2022-07-29T12:02:12.075Z,18.72
2022-07-29T12:02:56.127Z,18.84
2022-07-29T12:03:55.512Z,18.75
2022-07-29T12:04:55.309Z,18.74
2022-07-29T12:05:55.037Z,18.78
2022-07-29T12:06:55.027Z,18.79
2022-07-29T12:07:55.941Z,18.74
2022-07-29T12:08:55.992Z,18.62
2022-07-29T12:09:57.942Z,18.66
2022-07-29T12:10:55.944Z,18.64
2022-07-29T12:11:56.195Z,18.54
2022-07-29T12:12:55.948Z,18.57
2022-07-29T12:13:54.977Z,18.46
2022-07-29T12:14:54.949Z,18.47
2022-07-29T12:15:54.994Z,18.51
2022-07-29T12:16:54.969Z,18.50
2022-07-29T12:17:55.451Z,18.36
2022-07-29T12:18:55.448Z,18.41
2022-07-29T12:19:54.905Z,18.44
2022-07-29T12:20:57.445Z,18.47
2022-07-29T12:21:56.885Z,18.44
2022-07-29T12:22:54.883Z,18.42
2022-07-29T12:23:54.844Z,18.46
2022-07-29T12:25:02.198Z,18.54
2022-07-29T12:25:56.437Z,18.60
2022-07-29T12:26:54.809Z,18.64
2022-07-29T12:27:55.451Z,18.60
2022-07-29T12:28:57.447Z,18.65
2022-07-29T12:29:54.779Z,18.78
2022-07-29T12:30:54.991Z,18.82
2022-07-29T12:32:01.822Z,18.89
2022-07-29T12:32:54.736Z,18.84
2022-07-29T12:33:55.447Z,18.83
2022-07-29T12:34:54.986Z,18.82
2022-07-29T12:36:06.753Z,18.91
2022-07-29T12:36:58.451Z,19.01
2022-07-29T12:37:54.703Z,19.10
2022-07-29T12:38:54.674Z,18.99
2022-07-29T12:39:54.686Z,18.87
2022-07-29T12:40:54.650Z,18.64
2022-07-29T12:42:04.543Z,18.32
2022-07-29T12:42:55.623Z,18.16
2022-07-29T12:43:54.631Z,17.99
2022-07-29T12:44:54.623Z,17.99
2022-07-29T12:45:54.606Z,17.89
2022-07-29T12:46:54.677Z,17.91
2022-07-29T12:48:09.458Z,17.77
2022-07-29T12:48:54.656Z,17.66
2022-07-29T12:49:55.464Z,17.55
2022-07-29T12:50:54.545Z,17.49
2022-07-29T12:51:54.723Z,17.51